sensor_id;sensor_type;location;lat;lon;timestamp;P1;durP1;ratioP1;P2;durP2;ratioP2
41677;SDS011;27364;49.026;8.712;2023-04-25T00:00:34;3.40;;;2.30;;
41677;SDS011;27364;49.026;8.712;2023-04-25T00:02:59;3.53;;;2.22;;
41677;SDS011;27364;49.026;8.712;2023-04-25T00:05:25;3.92;;;2.63;;
41677;SDS011;27364;49.026;8.712;2023-04-25T00:07:51;3.28;;;2.22;;
41677;SDS011;27364;49.026;8.712;2023-04-25T00:10:17;3.80;;;2.50;;
41677;SDS011;27364;49.026;8.712;2023-04-25T00:12:44;3.70;;;2.40;;
41677;SDS011;27364;49.026;8.712;2023-04-25T00:15:10;3.80;;;2.35;;
41677;SDS011;27364;49.026;8.712;2023-04-25T00:17:36;3.72;;;2.40;;
41677;SDS011;27364;49.026;8.712;2023-04-25T00:20:03;3.85;;;2.22;;
41677;SDS011;27364;49.026;8.712;2023-04-25T00:22:30;3.75;;;2.45;;
41677;SDS011;27364;49.026;8.712;2023-04-25T00:24:55;3.67;;;2.30;;
41677;SDS011;27364;49.026;8.712;2023-04-25T00:27:24;3.97;;;2.35;;
41677;SDS011;27364;49.026;8.712;2023-04-25T00:29:50;3.25;;;2.10;;
41677;SDS011;27364;49.026;8.712;2023-04-25T00:32:16;3.80;;;2.38;;
41677;SDS011;27364;49.026;8.712;2023-04-25T00:34:41;3.60;;;2.45;;
41677;SDS011;27364;49.026;8.712;2023-04-25T00:37:07;3.10;;;2.10;;
41677;SDS011;27364;49.026;8.712;2023-04-25T00:39:32;3.38;;;2.00;;
41677;SDS011;27364;49.026;8.712;2023-04-25T00:41:58;3.00;;;2.20;;
41677;SDS011;27364;49.026;8.712;2023-04-25T00:44:24;3.80;;;2.42;;
41677;SDS011;27364;49.026;8.712;2023-04-25T00:46:51;3.42;;;2.40;;
41677;SDS011;27364;49.026;8.712;2023-04-25T00:49:18;3.92;;;2.53;;
41677;SDS011;27364;49.026;8.712;2023-04-25T00:51:44;4.68;;;2.70;;
41677;SDS011;27364;49.026;8.712;2023-04-25T00:54:10;3.72;;;2.33;;
41677;SDS011;27364;49.026;8.712;2023-04-25T00:56:37;4.22;;;2.63;;
41677;SDS011;27364;49.026;8.712;2023-04-25T00:59:03;4.40;;;2.70;;
41677;SDS011;27364;49.026;8.712;2023-04-25T01:01:29;5.00;;;2.95;;
41677;SDS011;27364;49.026;8.712;2023-04-25T01:03:56;4.50;;;2.63;;
41677;SDS011;27364;49.026;8.712;2023-04-25T01:06:23;4.35;;;2.55;;
41677;SDS011;27364;49.026;8.712;2023-04-25T01:08:49;3.65;;;2.45;;
41677;SDS011;27364;49.026;8.712;2023-04-25T01:11:15;3.95;;;2.78;;
41677;SDS011;27364;49.026;8.712;2023-04-25T01:13:41;4.22;;;2.50;;
41677;SDS011;27364;49.026;8.712;2023-04-25T01:16:07;4.22;;;2.63;;
41677;SDS011;27364;49.026;8.712;2023-04-25T01:18:32;3.88;;;2.47;;
41677;SDS011;27364;49.026;8.712;2023-04-25T01:21:08;4.55;;;2.75;;
41677;SDS011;27364;49.026;8.712;2023-04-25T01:23:38;4.68;;;2.70;;
41677;SDS011;27364;49.026;8.712;2023-04-25T01:26:06;4.05;;;2.72;;
41677;SDS011;27364;49.026;8.712;2023-04-25T01:30:59;3.58;;;2.28;;
41677;SDS011;27364;49.026;8.712;2023-04-25T01:33:25;3.72;;;2.58;;
41677;SDS011;27364;49.026;8.712;2023-04-25T01:35:51;3.97;;;2.60;;
41677;SDS011;27364;49.026;8.712;2023-04-25T01:38:16;4.15;;;2.80;;
41677;SDS011;27364;49.026;8.712;2023-04-25T01:40:42;3.75;;;2.50;;
41677;SDS011;27364;49.026;8.712;2023-04-25T01:43:10;3.95;;;2.28;;
41677;SDS011;27364;49.026;8.712;2023-04-25T01:45:40;3.15;;;2.20;;
41677;SDS011;27364;49.026;8.712;2023-04-25T01:48:10;5.03;;;2.35;;
41677;SDS011;27364;49.026;8.712;2023-04-25T01:50:38;4.15;;;2.70;;
41677;SDS011;27364;49.026;8.712;2023-04-25T01:53:04;3.75;;;2.47;;
41677;SDS011;27364;49.026;8.712;2023-04-25T01:55:29;3.20;;;2.03;;
41677;SDS011;27364;49.026;8.712;2023-04-25T01:57:55;4.25;;;2.55;;
41677;SDS011;27364;49.026;8.712;2023-04-25T02:00:21;3.60;;;2.20;;
41677;SDS011;27364;49.026;8.712;2023-04-25T02:02:47;2.97;;;2.00;;
41677;SDS011;27364;49.026;8.712;2023-04-25T02:05:13;4.03;;;2.20;;
41677;SDS011;27364;49.026;8.712;2023-04-25T02:07:38;3.15;;;2.10;;
41677;SDS011;27364;49.026;8.712;2023-04-25T02:10:04;3.67;;;2.35;;
41677;SDS011;27364;49.026;8.712;2023-04-25T02:12:30;3.70;;;2.28;;
41677;SDS011;27364;49.026;8.712;2023-04-25T02:14:56;5.65;;;2.55;;
41677;SDS011;27364;49.026;8.712;2023-04-25T02:17:22;6.05;;;2.67;;
41677;SDS011;27364;49.026;8.712;2023-04-25T02:19:48;5.18;;;2.95;;
41677;SDS011;27364;49.026;8.712;2023-04-25T02:22:13;4.50;;;2.63;;
41677;SDS011;27364;49.026;8.712;2023-04-25T02:24:39;4.03;;;2.20;;
41677;SDS011;27364;49.026;8.712;2023-04-25T02:27:04;5.45;;;2.33;;
41677;SDS011;27364;49.026;8.712;2023-04-25T02:29:30;4.07;;;2.55;;
41677;SDS011;27364;49.026;8.712;2023-04-25T02:31:56;5.22;;;2.88;;
41677;SDS011;27364;49.026;8.712;2023-04-25T02:34:21;4.93;;;2.65;;
41677;SDS011;27364;49.026;8.712;2023-04-25T02:36:48;4.57;;;2.70;;
41677;SDS011;27364;49.026;8.712;2023-04-25T02:39:15;4.10;;;2.63;;
41677;SDS011;27364;49.026;8.712;2023-04-25T02:41:41;4.10;;;2.60;;
41677;SDS011;27364;49.026;8.712;2023-04-25T02:44:07;4.10;;;2.55;;
41677;SDS011;27364;49.026;8.712;2023-04-25T02:46:32;3.83;;;2.75;;
41677;SDS011;27364;49.026;8.712;2023-04-25T02:48:58;4.65;;;2.70;;
41677;SDS011;27364;49.026;8.712;2023-04-25T02:51:23;4.57;;;2.95;;
41677;SDS011;27364;49.026;8.712;2023-04-25T02:53:49;4.72;;;2.75;;
41677;SDS011;27364;49.026;8.712;2023-04-25T02:56:14;4.80;;;3.05;;
41677;SDS011;27364;49.026;8.712;2023-04-25T02:58:40;4.43;;;2.75;;
41677;SDS011;27364;49.026;8.712;2023-04-25T03:01:06;4.35;;;2.85;;
41677;SDS011;27364;49.026;8.712;2023-04-25T03:03:31;4.68;;;3.13;;
41677;SDS011;27364;49.026;8.712;2023-04-25T03:05:57;5.60;;;3.40;;
41677;SDS011;27364;49.026;8.712;2023-04-25T03:08:22;4.00;;;2.70;;
41677;SDS011;27364;49.026;8.712;2023-04-25T03:10:48;5.45;;;3.25;;
41677;SDS011;27364;49.026;8.712;2023-04-25T03:13:15;4.95;;;3.10;;
41677;SDS011;27364;49.026;8.712;2023-04-25T03:15:40;5.18;;;3.22;;
41677;SDS011;27364;49.026;8.712;2023-04-25T03:18:07;5.05;;;3.20;;
41677;SDS011;27364;49.026;8.712;2023-04-25T03:20:33;4.53;;;3.08;;
41677;SDS011;27364;49.026;8.712;2023-04-25T03:22:58;4.93;;;3.33;;
41677;SDS011;27364;49.026;8.712;2023-04-25T03:25:24;4.47;;;2.75;;
41677;SDS011;27364;49.026;8.712;2023-04-25T03:27:49;4.38;;;2.72;;
41677;SDS011;27364;49.026;8.712;2023-04-25T03:30:15;5.10;;;3.45;;
41677;SDS011;27364;49.026;8.712;2023-04-25T03:32:40;6.40;;;3.50;;
41677;SDS011;27364;49.026;8.712;2023-04-25T03:35:06;3.97;;;2.83;;
41677;SDS011;27364;49.026;8.712;2023-04-25T03:37:32;4.60;;;3.10;;
41677;SDS011;27364;49.026;8.712;2023-04-25T03:39:57;3.83;;;2.53;;
41677;SDS011;27364;49.026;8.712;2023-04-25T03:42:23;4.53;;;2.85;;
41677;SDS011;27364;49.026;8.712;2023-04-25T03:44:51;8.25;;;3.10;;
41677;SDS011;27364;49.026;8.712;2023-04-25T03:47:17;4.30;;;2.60;;
41677;SDS011;27364;49.026;8.712;2023-04-25T03:49:42;4.03;;;2.85;;
41677;SDS011;27364;49.026;8.712;2023-04-25T03:52:09;6.30;;;3.22;;
41677;SDS011;27364;49.026;8.712;2023-04-25T03:54:35;4.25;;;2.72;;
41677;SDS011;27364;49.026;8.712;2023-04-25T03:57:00;4.15;;;2.80;;
41677;SDS011;27364;49.026;8.712;2023-04-25T03:59:26;5.95;;;2.90;;
41677;SDS011;27364;49.026;8.712;2023-04-25T04:01:51;4.10;;;2.65;;
41677;SDS011;27364;49.026;8.712;2023-04-25T04:04:17;4.70;;;2.65;;
41677;SDS011;27364;49.026;8.712;2023-04-25T04:06:43;4.60;;;2.90;;
41677;SDS011;27364;49.026;8.712;2023-04-25T04:09:08;4.28;;;2.67;;
41677;SDS011;27364;49.026;8.712;2023-04-25T04:11:36;3.88;;;2.58;;
41677;SDS011;27364;49.026;8.712;2023-04-25T04:14:03;3.93;;;2.70;;
41677;SDS011;27364;49.026;8.712;2023-04-25T04:16:31;3.72;;;2.50;;
41677;SDS011;27364;49.026;8.712;2023-04-25T04:18:57;3.40;;;2.30;;
41677;SDS011;27364;49.026;8.712;2023-04-25T04:21:23;4.88;;;2.50;;
41677;SDS011;27364;49.026;8.712;2023-04-25T04:23:48;2.85;;;1.90;;
41677;SDS011;27364;49.026;8.712;2023-04-25T04:26:14;3.47;;;2.28;;
41677;SDS011;27364;49.026;8.712;2023-04-25T04:28:41;3.88;;;2.60;;
41677;SDS011;27364;49.026;8.712;2023-04-25T04:31:08;3.78;;;2.58;;
41677;SDS011;27364;49.026;8.712;2023-04-25T04:33:34;3.20;;;2.20;;
41677;SDS011;27364;49.026;8.712;2023-04-25T04:36:01;4.10;;;2.70;;
41677;SDS011;27364;49.026;8.712;2023-04-25T04:38:28;4.25;;;2.40;;
41677;SDS011;27364;49.026;8.712;2023-04-25T04:40:53;4.13;;;2.63;;
41677;SDS011;27364;49.026;8.712;2023-04-25T04:43:19;3.95;;;2.40;;
41677;SDS011;27364;49.026;8.712;2023-04-25T04:45:45;4.22;;;2.63;;
41677;SDS011;27364;49.026;8.712;2023-04-25T04:48:10;5.05;;;3.00;;
41677;SDS011;27364;49.026;8.712;2023-04-25T04:50:38;4.82;;;2.90;;
41677;SDS011;27364;49.026;8.712;2023-04-25T04:53:05;4.47;;;3.13;;
41677;SDS011;27364;49.026;8.712;2023-04-25T04:55:30;4.40;;;2.72;;
41677;SDS011;27364;49.026;8.712;2023-04-25T04:57:56;3.78;;;2.60;;
41677;SDS011;27364;49.026;8.712;2023-04-25T05:00:21;3.55;;;2.50;;
41677;SDS011;27364;49.026;8.712;2023-04-25T05:02:47;3.70;;;2.60;;
41677;SDS011;27364;49.026;8.712;2023-04-25T05:05:13;5.25;;;3.05;;
41677;SDS011;27364;49.026;8.712;2023-04-25T05:07:38;4.22;;;3.03;;
41677;SDS011;27364;49.026;8.712;2023-04-25T05:10:04;4.38;;;2.80;;
41677;SDS011;27364;49.026;8.712;2023-04-25T05:12:30;4.75;;;2.95;;
41677;SDS011;27364;49.026;8.712;2023-04-25T05:14:55;4.38;;;2.80;;
41677;SDS011;27364;49.026;8.712;2023-04-25T05:17:21;4.30;;;3.08;;
41677;SDS011;27364;49.026;8.712;2023-04-25T05:19:47;4.97;;;2.80;;
41677;SDS011;27364;49.026;8.712;2023-04-25T05:22:12;4.20;;;2.85;;
41677;SDS011;27364;49.026;8.712;2023-04-25T05:24:38;3.90;;;2.72;;
41677;SDS011;27364;49.026;8.712;2023-04-25T05:27:04;5.10;;;2.83;;
41677;SDS011;27364;49.026;8.712;2023-04-25T05:29:30;7.32;;;4.60;;
41677;SDS011;27364;49.026;8.712;2023-04-25T05:31:56;3.60;;;2.70;;
41677;SDS011;27364;49.026;8.712;2023-04-25T05:34:21;4.03;;;2.65;;
41677;SDS011;27364;49.026;8.712;2023-04-25T05:36:47;3.72;;;2.30;;
41677;SDS011;27364;49.026;8.712;2023-04-25T05:39:14;3.28;;;2.42;;
41677;SDS011;27364;49.026;8.712;2023-04-25T05:41:43;3.47;;;2.60;;
41677;SDS011;27364;49.026;8.712;2023-04-25T05:44:08;4.47;;;2.70;;
41677;SDS011;27364;49.026;8.712;2023-04-25T05:46:34;5.13;;;2.67;;
41677;SDS011;27364;49.026;8.712;2023-04-25T05:49:00;4.88;;;2.67;;
41677;SDS011;27364;49.026;8.712;2023-04-25T05:51:25;3.80;;;2.70;;
41677;SDS011;27364;49.026;8.712;2023-04-25T05:53:52;4.55;;;2.90;;
41677;SDS011;27364;49.026;8.712;2023-04-25T05:56:18;5.20;;;2.80;;
41677;SDS011;27364;49.026;8.712;2023-04-25T05:58:43;4.15;;;2.40;;
41677;SDS011;27364;49.026;8.712;2023-04-25T06:01:09;6.68;;;2.78;;
41677;SDS011;27364;49.026;8.712;2023-04-25T06:03:34;4.25;;;2.88;;
41677;SDS011;27364;49.026;8.712;2023-04-25T06:06:00;4.45;;;2.85;;
41677;SDS011;27364;49.026;8.712;2023-04-25T06:08:25;4.30;;;2.92;;
41677;SDS011;27364;49.026;8.712;2023-04-25T06:10:51;3.50;;;2.60;;
41677;SDS011;27364;49.026;8.712;2023-04-25T06:13:17;4.22;;;2.50;;
41677;SDS011;27364;49.026;8.712;2023-04-25T06:15:42;4.53;;;2.80;;
41677;SDS011;27364;49.026;8.712;2023-04-25T06:18:08;4.50;;;2.72;;
41677;SDS011;27364;49.026;8.712;2023-04-25T06:20:33;3.88;;;2.47;;
41677;SDS011;27364;49.026;8.712;2023-04-25T06:22:59;4.13;;;2.90;;
41677;SDS011;27364;49.026;8.712;2023-04-25T06:25:24;4.57;;;2.88;;
41677;SDS011;27364;49.026;8.712;2023-04-25T06:27:50;3.88;;;2.95;;
41677;SDS011;27364;49.026;8.712;2023-04-25T06:30:15;4.97;;;3.15;;
41677;SDS011;27364;49.026;8.712;2023-04-25T06:32:43;6.05;;;3.00;;
41677;SDS011;27364;49.026;8.712;2023-04-25T06:35:08;6.10;;;3.38;;
41677;SDS011;27364;49.026;8.712;2023-04-25T06:37:35;6.63;;;3.40;;
41677;SDS011;27364;49.026;8.712;2023-04-25T06:40:00;4.40;;;3.00;;
41677;SDS011;27364;49.026;8.712;2023-04-25T06:42:27;4.88;;;2.92;;
41677;SDS011;27364;49.026;8.712;2023-04-25T06:44:53;5.47;;;3.38;;
41677;SDS011;27364;49.026;8.712;2023-04-25T06:47:18;5.30;;;3.42;;
41677;SDS011;27364;49.026;8.712;2023-04-25T06:49:44;5.03;;;3.17;;
41677;SDS011;27364;49.026;8.712;2023-04-25T06:52:09;4.43;;;3.05;;
41677;SDS011;27364;49.026;8.712;2023-04-25T06:54:35;6.00;;;3.25;;
41677;SDS011;27364;49.026;8.712;2023-04-25T06:57:01;4.75;;;3.15;;
41677;SDS011;27364;49.026;8.712;2023-04-25T06:59:26;4.57;;;3.22;;
41677;SDS011;27364;49.026;8.712;2023-04-25T07:01:52;5.25;;;3.33;;
41677;SDS011;27364;49.026;8.712;2023-04-25T07:04:17;5.22;;;3.30;;
41677;SDS011;27364;49.026;8.712;2023-04-25T07:06:43;6.50;;;3.85;;
41677;SDS011;27364;49.026;8.712;2023-04-25T07:09:09;5.75;;;3.65;;
41677;SDS011;27364;49.026;8.712;2023-04-25T07:11:35;5.63;;;3.13;;
41677;SDS011;27364;49.026;8.712;2023-04-25T07:14:01;4.18;;;3.13;;
41677;SDS011;27364;49.026;8.712;2023-04-25T07:16:26;4.50;;;2.90;;
41677;SDS011;27364;49.026;8.712;2023-04-25T07:18:52;6.32;;;3.28;;
41677;SDS011;27364;49.026;8.712;2023-04-25T07:21:18;8.77;;;3.70;;
41677;SDS011;27364;49.026;8.712;2023-04-25T07:23:43;4.50;;;3.20;;
41677;SDS011;27364;49.026;8.712;2023-04-25T07:26:09;3.75;;;2.85;;
41677;SDS011;27364;49.026;8.712;2023-04-25T07:28:34;4.70;;;3.22;;
41677;SDS011;27364;49.026;8.712;2023-04-25T07:31:00;6.50;;;3.63;;
41677;SDS011;27364;49.026;8.712;2023-04-25T07:33:26;5.10;;;3.60;;
41677;SDS011;27364;49.026;8.712;2023-04-25T07:35:52;5.20;;;3.80;;
41677;SDS011;27364;49.026;8.712;2023-04-25T07:38:18;5.35;;;3.78;;
41677;SDS011;27364;49.026;8.712;2023-04-25T07:40:43;5.75;;;4.20;;
41677;SDS011;27364;49.026;8.712;2023-04-25T07:43:09;6.13;;;4.53;;
41677;SDS011;27364;49.026;8.712;2023-04-25T07:45:37;5.22;;;3.75;;
41677;SDS011;27364;49.026;8.712;2023-04-25T07:48:02;6.03;;;3.92;;
41677;SDS011;27364;49.026;8.712;2023-04-25T07:50:28;5.88;;;3.70;;
41677;SDS011;27364;49.026;8.712;2023-04-25T07:52:53;5.90;;;4.15;;
41677;SDS011;27364;49.026;8.712;2023-04-25T07:55:19;6.15;;;4.00;;
41677;SDS011;27364;49.026;8.712;2023-04-25T07:57:45;4.85;;;3.85;;
41677;SDS011;27364;49.026;8.712;2023-04-25T08:00:10;6.10;;;3.65;;
41677;SDS011;27364;49.026;8.712;2023-04-25T08:02:37;6.00;;;4.03;;
41677;SDS011;27364;49.026;8.712;2023-04-25T08:05:02;5.68;;;4.18;;
41677;SDS011;27364;49.026;8.712;2023-04-25T08:07:28;5.25;;;4.10;;
41677;SDS011;27364;49.026;8.712;2023-04-25T08:09:54;6.25;;;4.28;;
41677;SDS011;27364;49.026;8.712;2023-04-25T08:12:19;5.63;;;3.80;;
41677;SDS011;27364;49.026;8.712;2023-04-25T08:14:45;6.10;;;4.45;;
41677;SDS011;27364;49.026;8.712;2023-04-25T08:17:10;7.50;;;4.95;;
41677;SDS011;27364;49.026;8.712;2023-04-25T08:19:36;6.53;;;4.50;;
41677;SDS011;27364;49.026;8.712;2023-04-25T08:22:02;6.75;;;5.18;;
41677;SDS011;27364;49.026;8.712;2023-04-25T08:24:28;7.78;;;5.10;;
41677;SDS011;27364;49.026;8.712;2023-04-25T08:26:53;7.43;;;5.38;;
41677;SDS011;27364;49.026;8.712;2023-04-25T08:29:19;9.48;;;5.22;;
41677;SDS011;27364;49.026;8.712;2023-04-25T08:31:44;7.07;;;4.90;;
41677;SDS011;27364;49.026;8.712;2023-04-25T08:34:10;6.65;;;4.63;;
41677;SDS011;27364;49.026;8.712;2023-04-25T08:36:36;6.30;;;4.82;;
41677;SDS011;27364;49.026;8.712;2023-04-25T08:39:01;7.10;;;4.78;;
41677;SDS011;27364;49.026;8.712;2023-04-25T08:41:27;6.38;;;4.60;;
41677;SDS011;27364;49.026;8.712;2023-04-25T08:43:53;8.02;;;4.90;;
41677;SDS011;27364;49.026;8.712;2023-04-25T08:46:22;7.18;;;4.97;;
41677;SDS011;27364;49.026;8.712;2023-04-25T08:48:48;7.35;;;5.03;;
41677;SDS011;27364;49.026;8.712;2023-04-25T08:51:17;6.93;;;5.05;;
41677;SDS011;27364;49.026;8.712;2023-04-25T08:53:48;6.57;;;4.78;;
41677;SDS011;27364;49.026;8.712;2023-04-25T08:56:16;6.93;;;5.03;;
41677;SDS011;27364;49.026;8.712;2023-04-25T08:58:43;6.60;;;5.03;;
41677;SDS011;27364;49.026;8.712;2023-04-25T09:01:10;7.15;;;5.18;;
41677;SDS011;27364;49.026;8.712;2023-04-25T09:03:36;7.32;;;5.32;;
41677;SDS011;27364;49.026;8.712;2023-04-25T09:06:02;5.68;;;3.80;;
41677;SDS011;27364;49.026;8.712;2023-04-25T09:08:28;5.50;;;3.45;;
41677;SDS011;27364;49.026;8.712;2023-04-25T09:10:54;4.25;;;3.13;;
41677;SDS011;27364;49.026;8.712;2023-04-25T09:13:24;4.32;;;2.88;;
41677;SDS011;27364;49.026;8.712;2023-04-25T09:15:52;3.97;;;2.50;;
41677;SDS011;27364;49.026;8.712;2023-04-25T09:18:25;5.13;;;2.80;;
41677;SDS011;27364;49.026;8.712;2023-04-25T09:20:53;4.90;;;3.05;;
41677;SDS011;27364;49.026;8.712;2023-04-25T09:23:38;4.05;;;2.90;;
41677;SDS011;27364;49.026;8.712;2023-04-25T09:26:13;5.97;;;2.97;;
41677;SDS011;27364;49.026;8.712;2023-04-25T09:28:43;5.05;;;2.70;;
41677;SDS011;27364;49.026;8.712;2023-04-25T09:31:12;5.15;;;3.40;;
41677;SDS011;27364;49.026;8.712;2023-04-25T09:33:45;5.25;;;3.22;;
41677;SDS011;27364;49.026;8.712;2023-04-25T09:36:11;4.45;;;3.08;;
41677;SDS011;27364;49.026;8.712;2023-04-25T09:38:40;5.50;;;3.30;;
41677;SDS011;27364;49.026;8.712;2023-04-25T09:41:07;3.95;;;2.65;;
41677;SDS011;27364;49.026;8.712;2023-04-25T09:43:33;4.35;;;2.92;;
41677;SDS011;27364;49.026;8.712;2023-04-25T09:45:59;4.20;;;2.92;;
41677;SDS011;27364;49.026;8.712;2023-04-25T09:48:26;5.40;;;3.65;;
41677;SDS011;27364;49.026;8.712;2023-04-25T09:51:05;4.60;;;3.00;;
41677;SDS011;27364;49.026;8.712;2023-04-25T09:53:42;5.32;;;3.83;;
41677;SDS011;27364;49.026;8.712;2023-04-25T09:56:09;6.65;;;3.80;;
41677;SDS011;27364;49.026;8.712;2023-04-25T09:58:37;6.07;;;4.28;;
41677;SDS011;27364;49.026;8.712;2023-04-25T10:01:07;8.43;;;4.25;;
41677;SDS011;27364;49.026;8.712;2023-04-25T10:03:34;8.53;;;4.83;;
41677;SDS011;27364;49.026;8.712;2023-04-25T10:06:02;5.97;;;4.38;;
41677;SDS011;27364;49.026;8.712;2023-04-25T10:08:36;7.15;;;4.95;;
41677;SDS011;27364;49.026;8.712;2023-04-25T10:11:04;7.63;;;4.85;;
41677;SDS011;27364;49.026;8.712;2023-04-25T10:13:31;7.47;;;4.70;;
41677;SDS011;27364;49.026;8.712;2023-04-25T10:15:58;7.90;;;4.90;;
41677;SDS011;27364;49.026;8.712;2023-04-25T10:18:25;9.20;;;5.30;;
41677;SDS011;27364;49.026;8.712;2023-04-25T10:20:53;9.18;;;5.45;;
41677;SDS011;27364;49.026;8.712;2023-04-25T10:23:30;8.48;;;5.57;;
41677;SDS011;27364;49.026;8.712;2023-04-25T10:25:56;8.25;;;5.55;;
41677;SDS011;27364;49.026;8.712;2023-04-25T10:28:23;9.38;;;5.35;;
41677;SDS011;27364;49.026;8.712;2023-04-25T10:33:35;6.95;;;4.82;;
41677;SDS011;27364;49.026;8.712;2023-04-25T10:36:09;9.80;;;5.85;;
41677;SDS011;27364;49.026;8.712;2023-04-25T10:38:48;11.85;;;5.20;;
41677;SDS011;27364;49.026;8.712;2023-04-25T10:41:19;9.07;;;5.72;;
41677;SDS011;27364;49.026;8.712;2023-04-25T10:43:47;9.70;;;5.82;;
41677;SDS011;27364;49.026;8.712;2023-04-25T10:46:14;7.88;;;5.18;;
41677;SDS011;27364;49.026;8.712;2023-04-25T10:48:45;10.52;;;6.60;;
41677;SDS011;27364;49.026;8.712;2023-04-25T10:51:20;8.20;;;5.53;;
41677;SDS011;27364;49.026;8.712;2023-04-25T10:54:06;10.05;;;5.45;;
41677;SDS011;27364;49.026;8.712;2023-04-25T10:56:33;8.93;;;5.25;;
41677;SDS011;27364;49.026;8.712;2023-04-25T11:01:40;8.82;;;5.43;;
41677;SDS011;27364;49.026;8.712;2023-04-25T11:04:21;10.05;;;5.40;;
41677;SDS011;27364;49.026;8.712;2023-04-25T11:09:48;11.18;;;5.97;;
41677;SDS011;27364;49.026;8.712;2023-04-25T11:12:14;11.52;;;6.32;;
41677;SDS011;27364;49.026;8.712;2023-04-25T11:14:41;11.00;;;6.60;;
41677;SDS011;27364;49.026;8.712;2023-04-25T11:17:06;11.50;;;6.22;;
41677;SDS011;27364;49.026;8.712;2023-04-25T11:19:32;12.27;;;6.63;;
41677;SDS011;27364;49.026;8.712;2023-04-25T11:21:58;11.48;;;6.03;;
41677;SDS011;27364;49.026;8.712;2023-04-25T11:24:28;12.30;;;8.23;;
41677;SDS011;27364;49.026;8.712;2023-04-25T11:26:54;10.10;;;6.78;;
41677;SDS011;27364;49.026;8.712;2023-04-25T11:29:26;8.52;;;6.25;;
41677;SDS011;27364;49.026;8.712;2023-04-25T11:31:52;10.85;;;6.97;;
41677;SDS011;27364;49.026;8.712;2023-04-25T11:34:18;10.57;;;6.13;;
41677;SDS011;27364;49.026;8.712;2023-04-25T11:36:44;9.13;;;5.93;;
41677;SDS011;27364;49.026;8.712;2023-04-25T11:39:11;11.13;;;6.22;;
41677;SDS011;27364;49.026;8.712;2023-04-25T11:41:37;9.88;;;6.07;;
41677;SDS011;27364;49.026;8.712;2023-04-25T11:44:03;8.90;;;6.20;;
41677;SDS011;27364;49.026;8.712;2023-04-25T11:46:29;10.27;;;5.97;;
41677;SDS011;27364;49.026;8.712;2023-04-25T11:48:55;10.07;;;6.13;;
41677;SDS011;27364;49.026;8.712;2023-04-25T11:51:22;8.85;;;5.97;;
41677;SDS011;27364;49.026;8.712;2023-04-25T11:53:47;9.50;;;6.28;;
41677;SDS011;27364;49.026;8.712;2023-04-25T11:56:13;10.00;;;6.55;;
41677;SDS011;27364;49.026;8.712;2023-04-25T12:01:31;9.80;;;5.57;;
41677;SDS011;27364;49.026;8.712;2023-04-25T12:03:58;10.55;;;6.00;;
41677;SDS011;27364;49.026;8.712;2023-04-25T12:06:36;10.10;;;5.95;;
41677;SDS011;27364;49.026;8.712;2023-04-25T12:09:06;9.30;;;5.90;;
41677;SDS011;27364;49.026;8.712;2023-04-25T12:11:40;8.07;;;6.15;;
41677;SDS011;27364;49.026;8.712;2023-04-25T12:14:10;8.23;;;5.63;;
41677;SDS011;27364;49.026;8.712;2023-04-25T12:16:42;9.48;;;6.82;;
41677;SDS011;27364;49.026;8.712;2023-04-25T12:19:08;8.98;;;5.95;;
41677;SDS011;27364;49.026;8.712;2023-04-25T12:21:34;8.40;;;5.75;;
41677;SDS011;27364;49.026;8.712;2023-04-25T12:26:48;7.35;;;5.35;;
41677;SDS011;27364;49.026;8.712;2023-04-25T12:29:34;9.63;;;5.93;;
41677;SDS011;27364;49.026;8.712;2023-04-25T12:32:00;8.90;;;5.18;;
41677;SDS011;27364;49.026;8.712;2023-04-25T12:34:28;7.90;;;5.32;;
41677;SDS011;27364;49.026;8.712;2023-04-25T12:36:56;8.75;;;5.60;;
41677;SDS011;27364;49.026;8.712;2023-04-25T12:39:22;8.88;;;5.35;;
41677;SDS011;27364;49.026;8.712;2023-04-25T12:41:49;8.73;;;5.88;;
41677;SDS011;27364;49.026;8.712;2023-04-25T12:44:21;8.40;;;6.03;;
41677;SDS011;27364;49.026;8.712;2023-04-25T12:46:47;7.68;;;5.60;;
41677;SDS011;27364;49.026;8.712;2023-04-25T12:49:13;8.05;;;5.70;;
41677;SDS011;27364;49.026;8.712;2023-04-25T12:51:39;9.82;;;5.78;;
41677;SDS011;27364;49.026;8.712;2023-04-25T12:54:06;8.20;;;5.90;;
41677;SDS011;27364;49.026;8.712;2023-04-25T12:56:33;8.57;;;5.50;;
41677;SDS011;27364;49.026;8.712;2023-04-25T12:58:59;6.65;;;4.50;;
41677;SDS011;27364;49.026;8.712;2023-04-25T13:01:25;8.57;;;4.85;;
41677;SDS011;27364;49.026;8.712;2023-04-25T13:03:51;6.63;;;4.78;;
41677;SDS011;27364;49.026;8.712;2023-04-25T13:06:17;6.50;;;4.35;;
41677;SDS011;27364;49.026;8.712;2023-04-25T13:08:44;6.80;;;4.25;;
41677;SDS011;27364;49.026;8.712;2023-04-25T13:11:10;7.97;;;5.28;;
41677;SDS011;27364;49.026;8.712;2023-04-25T13:13:36;6.05;;;3.88;;
41677;SDS011;27364;49.026;8.712;2023-04-25T13:16:03;6.13;;;4.43;;
41677;SDS011;27364;49.026;8.712;2023-04-25T13:18:29;8.40;;;5.78;;
41677;SDS011;27364;49.026;8.712;2023-04-25T13:20:55;8.40;;;5.28;;
41677;SDS011;27364;49.026;8.712;2023-04-25T13:23:21;7.38;;;5.60;;
41677;SDS011;27364;49.026;8.712;2023-04-25T13:25:47;9.57;;;5.82;;
41677;SDS011;27364;49.026;8.712;2023-04-25T13:28:13;8.57;;;5.93;;
41677;SDS011;27364;49.026;8.712;2023-04-25T13:30:39;14.68;;;5.72;;
41677;SDS011;27364;49.026;8.712;2023-04-25T13:33:05;7.47;;;5.30;;
41677;SDS011;27364;49.026;8.712;2023-04-25T13:35:31;8.75;;;6.03;;
41677;SDS011;27364;49.026;8.712;2023-04-25T13:37:58;7.88;;;5.35;;
41677;SDS011;27364;49.026;8.712;2023-04-25T13:40:24;9.20;;;6.10;;
41677;SDS011;27364;49.026;8.712;2023-04-25T13:42:50;7.88;;;5.35;;
41677;SDS011;27364;49.026;8.712;2023-04-25T13:45:16;9.38;;;5.57;;
41677;SDS011;27364;49.026;8.712;2023-04-25T13:47:41;9.23;;;5.50;;
41677;SDS011;27364;49.026;8.712;2023-04-25T13:50:07;9.18;;;5.32;;
41677;SDS011;27364;49.026;8.712;2023-04-25T13:52:33;9.80;;;5.97;;
41677;SDS011;27364;49.026;8.712;2023-04-25T13:54:59;8.70;;;5.65;;
41677;SDS011;27364;49.026;8.712;2023-04-25T13:57:24;9.55;;;5.47;;
41677;SDS011;27364;49.026;8.712;2023-04-25T13:59:50;8.55;;;5.32;;
41677;SDS011;27364;49.026;8.712;2023-04-25T14:02:16;7.47;;;5.00;;
41677;SDS011;27364;49.026;8.712;2023-04-25T14:04:42;6.95;;;4.18;;
41677;SDS011;27364;49.026;8.712;2023-04-25T14:07:07;6.85;;;4.70;;
41677;SDS011;27364;49.026;8.712;2023-04-25T14:09:33;7.07;;;5.03;;
41677;SDS011;27364;49.026;8.712;2023-04-25T14:11:59;8.52;;;5.50;;
41677;SDS011;27364;49.026;8.712;2023-04-25T14:14:25;7.70;;;5.55;;
41677;SDS011;27364;49.026;8.712;2023-04-25T14:16:51;7.70;;;5.05;;
41677;SDS011;27364;49.026;8.712;2023-04-25T14:19:18;7.75;;;4.70;;
41677;SDS011;27364;49.026;8.712;2023-04-25T14:21:45;7.28;;;4.68;;
41677;SDS011;27364;49.026;8.712;2023-04-25T14:24:11;6.78;;;4.85;;
41677;SDS011;27364;49.026;8.712;2023-04-25T14:26:38;7.38;;;4.63;;
41677;SDS011;27364;49.026;8.712;2023-04-25T14:29:04;6.15;;;4.30;;
41677;SDS011;27364;49.026;8.712;2023-04-25T14:31:31;8.63;;;5.00;;
41677;SDS011;27364;49.026;8.712;2023-04-25T14:33:57;7.22;;;4.40;;
41677;SDS011;27364;49.026;8.712;2023-04-25T14:36:22;6.25;;;4.25;;
41677;SDS011;27364;49.026;8.712;2023-04-25T14:38:48;6.32;;;4.15;;
41677;SDS011;27364;49.026;8.712;2023-04-25T14:41:13;6.93;;;4.85;;
41677;SDS011;27364;49.026;8.712;2023-04-25T14:43:39;7.53;;;4.63;;
41677;SDS011;27364;49.026;8.712;2023-04-25T14:46:06;6.57;;;4.20;;
41677;SDS011;27364;49.026;8.712;2023-04-25T14:48:31;6.63;;;4.10;;
41677;SDS011;27364;49.026;8.712;2023-04-25T14:50:58;7.50;;;4.70;;
41677;SDS011;27364;49.026;8.712;2023-04-25T14:53:24;6.57;;;3.72;;
41677;SDS011;27364;49.026;8.712;2023-04-25T14:55:50;8.27;;;4.13;;
41677;SDS011;27364;49.026;8.712;2023-04-25T14:58:16;6.65;;;3.85;;
41677;SDS011;27364;49.026;8.712;2023-04-25T15:00:41;6.95;;;3.65;;